Startpagina
METAR-TAF:

METAR-TAF

Vliegvelden :

Aeroporto Internacional do Recife

Recife, Pernambuco, Brazilië

breedte: 08-08S, lengte: 034-55W, hoogte: 19 m

Actueel weer

Dit bericht is 1 uur en het 9 minuten geleden gemaakt, om 15:00 UTC
Wind 14 kt uit het zuidoosten, variërend tussen het oosten en het zuiden
Temperatuur 26°C
Vochtigheid 18%
Druk 1015 hPa
Zicht 10 km of meer
Verspreide wolken op 1700 ft
Verspreide wolken op 2300 ft
Gebroken wolken op 6000 ft
buien in de omgeving

METAR: SBRF 211500Z 14014KT 100V170 9999 VCSH SCT017 SCT023 BKN060 26/ 21 Q1015

Tijdstip: 13:09 (16:09 UTC)

Verwachting

Dit bericht is 6 uur en het 9 minuten geleden gemaakt, om 10:00 UTC
Verwachting geldig van 21 om 12 UTC tot 22 om 12 UTC
Wind 11 kt uit het zuidoosten
Zicht: 9000 m
Verspreide wolken op 2300 ft
Kans 30% :
Tijdelijke
van 21 om 12 UTC tot 21 om 14 UTC
Zicht: 7000 m
Gebroken wolken op 2000 ft
regenbuien

TAF: SBRF 211000Z 2112/2212 13011KT 9000 SCT023 TX28/2115Z TN24/2208Z PROB30 TEMPO 2112/2114 7000 SHRA BKN020 RMK PCN

Waarnemingen en weersverwachtingen van meer dan 4000 vliegvelden (METAR en TAF).

De beschikbare stations zijn de gele en rode punten op de kaart.

Ga met uw muis naar het station om de naam te zien.

Klik dan om waarnemingen en weersverwachtingen te zien.

kaart wijzigen: klik op de groene knoppen met een zwart kruis om in te zoomen, op de groene knop met een streepje om uit te zoomen of op de groene pijlen voor aangrenzende kaarten.


METAR-TAF: